KFWA/FWA METAR and TAF weather

Enter ICAO airport designator
Station Type Date Time Source
KFWA METAR 2021/05/10 23:54 UTC NOAA

KFWA 102354Z 33008KT 10SM BKN050 BKN110 OVC250 12/04 A3012 RMK AO2 SLP204 60000 T01170044 10139 20117 53001 $


Station Type Date Time Source
KFWA Decoded METAR 2021/05/10 23:54 UTC NOAA

FORT WAYNE INTERNATIONAL, IN, United States (KFWA) 41-00N 85-12W 248M
May 10, 2021 - 07:54 PM EDT / 2021.05.10 2354 UTC
Wind: from the NNW (330 degrees) at 9 MPH (8 KT):0
Visibility: 10 mile(s):0
Sky conditions: overcast
Temperature: 53.1 F (11.7 C)
Dew Point: 39.9 F (4.4 C)
Relative Humidity: 60%
Pressure (altimeter): 30.12 in. Hg (1019 hPa)
Pressure tendency: 0.00 inches (0.1 hPa) higher than three hours ago
ob: KFWA 102354Z 33008KT 10SM BKN050 BKN110 OVC250 12/04 A3012 RMK AO2 SLP204 60000 T01170044 10139 20117 53001
cycle: 0

Station Type Date Time Source
KFWA TAF 2021/05/10 19:15 UTC NOAA

TAF
AMD KFWA 101912Z 1019/1118 30011KT P6SM BKN060 BKN200
FM110200 36005KT P6SM SCT150

Example: see airport list